sensor_id;sensor_type;location;lat;lon;timestamp;temperature;humidity
20520;DHT22;53432;51.952;14.740;2022-11-15T00:00:11;16.80;99.90
20520;DHT22;53432;51.952;14.740;2022-11-15T00:02:39;16.80;99.90
20520;DHT22;53432;51.952;14.740;2022-11-15T00:05:07;16.80;99.90
20520;DHT22;53432;51.952;14.740;2022-11-15T00:07:34;16.80;99.90
20520;DHT22;53432;51.952;14.740;2022-11-15T00:10:02;16.80;99.90
20520;DHT22;53432;51.952;14.740;2022-11-15T00:12:31;16.80;99.90
20520;DHT22;53432;51.952;14.740;2022-11-15T00:14:58;16.80;99.90
20520;DHT22;53432;51.952;14.740;2022-11-15T00:17:26;16.70;99.90
20520;DHT22;53432;51.952;14.740;2022-11-15T00:19:53;16.80;99.90
20520;DHT22;53432;51.952;14.740;2022-11-15T00:22:21;16.80;99.90
20520;DHT22;53432;51.952;14.740;2022-11-15T00:24:48;16.80;99.90
20520;DHT22;53432;51.952;14.740;2022-11-15T00:27:16;16.70;99.90
20520;DHT22;53432;51.952;14.740;2022-11-15T00:29:45;16.80;99.90
20520;DHT22;53432;51.952;14.740;2022-11-15T00:32:12;16.70;99.90
20520;DHT22;53432;51.952;14.740;2022-11-15T00:34:40;16.80;99.90
20520;DHT22;53432;51.952;14.740;2022-11-15T00:37:07;16.80;99.90
20520;DHT22;53432;51.952;14.740;2022-11-15T00:39:35;16.70;99.90
20520;DHT22;53432;51.952;14.740;2022-11-15T00:42:02;16.70;99.90
20520;DHT22;53432;51.952;14.740;2022-11-15T00:44:30;16.80;99.90
20520;DHT22;53432;51.952;14.740;2022-11-15T00:46:59;16.80;99.90
20520;DHT22;53432;51.952;14.740;2022-11-15T00:49:26;16.80;99.90
20520;DHT22;53432;51.952;14.740;2022-11-15T00:51:54;16.70;99.90
20520;DHT22;53432;51.952;14.740;2022-11-15T03:00:59;16.70;99.90
20520;DHT22;53432;51.952;14.740;2022-11-15T03:03:44;16.70;99.90
20520;DHT22;53432;51.952;14.740;2022-11-15T03:06:23;16.70;99.90
20520;DHT22;53432;51.952;14.740;2022-11-15T03:09:03;16.70;99.90
20520;DHT22;53432;51.952;14.740;2022-11-15T03:11:35;16.70;99.90
20520;DHT22;53432;51.952;14.740;2022-11-15T03:14:10;16.70;99.90
20520;DHT22;53432;51.952;14.740;2022-11-15T03:16:45;16.70;99.90
20520;DHT22;53432;51.952;14.740;2022-11-15T03:19:19;16.70;99.90
20520;DHT22;53432;51.952;14.740;2022-11-15T03:21:47;16.70;99.90
20520;DHT22;53432;51.952;14.740;2022-11-15T03:24:20;16.70;99.90
20520;DHT22;53432;51.952;14.740;2022-11-15T03:26:48;16.70;99.90
20520;DHT22;53432;51.952;14.740;2022-11-15T03:29:20;16.70;99.90
20520;DHT22;53432;51.952;14.740;2022-11-15T03:31:55;16.70;99.90
20520;DHT22;53432;51.952;14.740;2022-11-15T03:34:28;16.70;99.90
20520;DHT22;53432;51.952;14.740;2022-11-15T03:36:57;16.70;99.90
20520;DHT22;53432;51.952;14.740;2022-11-15T03:39:25;16.70;99.90
20520;DHT22;53432;51.952;14.740;2022-11-15T03:42:00;16.70;99.90
20520;DHT22;53432;51.952;14.740;2022-11-15T03:44:40;16.70;99.90
20520;DHT22;53432;51.952;14.740;2022-11-15T03:47:13;16.70;99.90
20520;DHT22;53432;51.952;14.740;2022-11-15T03:49:46;16.70;99.90
20520;DHT22;53432;51.952;14.740;2022-11-15T03:52:18;16.70;99.90
20520;DHT22;53432;51.952;14.740;2022-11-15T03:54:50;16.70;99.90
20520;DHT22;53432;51.952;14.740;2022-11-15T03:57:19;16.70;99.90
20520;DHT22;53432;51.952;14.740;2022-11-15T03:59:47;16.70;99.90
20520;DHT22;53432;51.952;14.740;2022-11-15T04:02:16;16.80;99.90
20520;DHT22;53432;51.952;14.740;2022-11-15T04:04:44;16.80;99.90
20520;DHT22;53432;51.952;14.740;2022-11-15T04:07:12;16.70;99.90
20520;DHT22;53432;51.952;14.740;2022-11-15T04:09:39;16.80;99.90
20520;DHT22;53432;51.952;14.740;2022-11-15T04:12:21;16.70;99.90
20520;DHT22;53432;51.952;14.740;2022-11-15T04:14:57;16.80;99.90
20520;DHT22;53432;51.952;14.740;2022-11-15T04:17:40;16.80;99.90
20520;DHT22;53432;51.952;14.740;2022-11-15T04:20:10;16.80;99.90
20520;DHT22;53432;51.952;14.740;2022-11-15T04:22:57;16.80;99.90
20520;DHT22;53432;51.952;14.740;2022-11-15T04:25:43;16.70;99.90
20520;DHT22;53432;51.952;14.740;2022-11-15T04:28:11;16.70;99.90
20520;DHT22;53432;51.952;14.740;2022-11-15T04:30:39;16.70;99.90
20520;DHT22;53432;51.952;14.740;2022-11-15T04:33:08;16.80;99.90
20520;DHT22;53432;51.952;14.740;2022-11-15T04:35:36;16.80;99.90
20520;DHT22;53432;51.952;14.740;2022-11-15T04:38:05;16.80;99.90
20520;DHT22;53432;51.952;14.740;2022-11-15T04:40:32;16.80;99.90
20520;DHT22;53432;51.952;14.740;2022-11-15T04:43:00;16.70;99.90
20520;DHT22;53432;51.952;14.740;2022-11-15T04:45:27;16.80;99.90
20520;DHT22;53432;51.952;14.740;2022-11-15T04:47:55;16.70;99.90
20520;DHT22;53432;51.952;14.740;2022-11-15T04:50:23;16.80;99.90
20520;DHT22;53432;51.952;14.740;2022-11-15T04:52:52;16.80;99.90
20520;DHT22;53432;51.952;14.740;2022-11-15T04:55:21;16.80;99.90
20520;DHT22;53432;51.952;14.740;2022-11-15T04:57:57;16.80;99.90
20520;DHT22;53432;51.952;14.740;2022-11-15T05:00:26;16.80;99.90
20520;DHT22;53432;51.952;14.740;2022-11-15T05:02:54;16.80;99.90
20520;DHT22;53432;51.952;14.740;2022-11-15T05:05:41;16.80;99.90
20520;DHT22;53432;51.952;14.740;2022-11-15T05:08:08;16.80;99.90
20520;DHT22;53432;51.952;14.740;2022-11-15T05:10:36;16.80;99.90
20520;DHT22;53432;51.952;14.740;2022-11-15T05:13:03;16.80;99.90
20520;DHT22;53432;51.952;14.740;2022-11-15T05:15:30;16.80;99.90
20520;DHT22;53432;51.952;14.740;2022-11-15T05:17:58;16.80;99.90
20520;DHT22;53432;51.952;14.740;2022-11-15T05:20:26;16.80;99.90
20520;DHT22;53432;51.952;14.740;2022-11-15T05:22:55;16.80;99.90
20520;DHT22;53432;51.952;14.740;2022-11-15T05:25:22;16.80;99.90
20520;DHT22;53432;51.952;14.740;2022-11-15T05:27:50;16.80;99.90
20520;DHT22;53432;51.952;14.740;2022-11-15T05:30:18;16.80;99.90
20520;DHT22;53432;51.952;14.740;2022-11-15T05:32:45;16.80;99.90
20520;DHT22;53432;51.952;14.740;2022-11-15T05:35:17;16.80;99.90
20520;DHT22;53432;51.952;14.740;2022-11-15T05:37:46;16.80;99.90
20520;DHT22;53432;51.952;14.740;2022-11-15T05:40:15;16.80;99.90
20520;DHT22;53432;51.952;14.740;2022-11-15T05:42:43;16.80;99.90
20520;DHT22;53432;51.952;14.740;2022-11-15T05:45:11;16.80;99.90
20520;DHT22;53432;51.952;14.740;2022-11-15T05:47:39;16.80;99.90
20520;DHT22;53432;51.952;14.740;2022-11-15T05:50:08;16.80;99.90
20520;DHT22;53432;51.952;14.740;2022-11-15T05:52:38;16.80;99.90
20520;DHT22;53432;51.952;14.740;2022-11-15T05:55:07;16.70;99.90
20520;DHT22;53432;51.952;14.740;2022-11-15T05:57:36;16.70;99.90
20520;DHT22;53432;51.952;14.740;2022-11-15T06:00:05;16.80;99.90
20520;DHT22;53432;51.952;14.740;2022-11-15T06:02:34;16.70;99.90
20520;DHT22;53432;51.952;14.740;2022-11-15T06:05:01;16.70;99.90
20520;DHT22;53432;51.952;14.740;2022-11-15T06:07:29;16.80;99.90
20520;DHT22;53432;51.952;14.740;2022-11-15T06:09:57;16.70;99.90
20520;DHT22;53432;51.952;14.740;2022-11-15T06:12:24;16.70;99.90
20520;DHT22;53432;51.952;14.740;2022-11-15T06:14:53;16.80;99.90
20520;DHT22;53432;51.952;14.740;2022-11-15T06:17:20;16.70;99.90
20520;DHT22;53432;51.952;14.740;2022-11-15T06:19:48;16.80;99.90
20520;DHT22;53432;51.952;14.740;2022-11-15T06:22:15;16.80;99.90
20520;DHT22;53432;51.952;14.740;2022-11-15T06:24:43;16.80;99.90
20520;DHT22;53432;51.952;14.740;2022-11-15T06:27:10;16.80;99.90
20520;DHT22;53432;51.952;14.740;2022-11-15T06:29:38;16.80;99.90
20520;DHT22;53432;51.952;14.740;2022-11-15T06:32:07;16.80;99.90
20520;DHT22;53432;51.952;14.740;2022-11-15T06:34:34;16.80;99.90
20520;DHT22;53432;51.952;14.740;2022-11-15T06:37:02;16.80;99.90
20520;DHT22;53432;51.952;14.740;2022-11-15T06:39:30;16.80;99.90
20520;DHT22;53432;51.952;14.740;2022-11-15T06:41:57;16.80;99.90
20520;DHT22;53432;51.952;14.740;2022-11-15T06:44:25;16.80;99.90
20520;DHT22;53432;51.952;14.740;2022-11-15T06:46:52;16.80;99.90
20520;DHT22;53432;51.952;14.740;2022-11-15T06:49:21;16.80;99.90
20520;DHT22;53432;51.952;14.740;2022-11-15T06:51:48;16.80;99.90
20520;DHT22;53432;51.952;14.740;2022-11-15T06:54:16;16.80;99.90
20520;DHT22;53432;51.952;14.740;2022-11-15T06:56:43;16.80;99.90
20520;DHT22;53432;51.952;14.740;2022-11-15T06:59:11;16.80;99.90
20520;DHT22;53432;51.952;14.740;2022-11-15T07:01:38;16.80;99.90
20520;DHT22;53432;51.952;14.740;2022-11-15T07:04:06;16.90;99.90
20520;DHT22;53432;51.952;14.740;2022-11-15T07:06:35;16.90;99.90
20520;DHT22;53432;51.952;14.740;2022-11-15T07:09:02;16.90;99.90
20520;DHT22;53432;51.952;14.740;2022-11-15T07:11:30;16.90;99.90
20520;DHT22;53432;51.952;14.740;2022-11-15T07:13:57;17.00;99.90
20520;DHT22;53432;51.952;14.740;2022-11-15T07:16:25;17.00;99.90
20520;DHT22;53432;51.952;14.740;2022-11-15T07:18:52;17.00;99.90
20520;DHT22;53432;51.952;14.740;2022-11-15T07:21:20;17.00;99.90
20520;DHT22;53432;51.952;14.740;2022-11-15T07:23:49;17.00;99.90
20520;DHT22;53432;51.952;14.740;2022-11-15T07:26:16;17.10;99.90
20520;DHT22;53432;51.952;14.740;2022-11-15T07:28:44;17.10;99.90
20520;DHT22;53432;51.952;14.740;2022-11-15T07:31:11;17.10;99.90
20520;DHT22;53432;51.952;14.740;2022-11-15T07:33:38;17.20;99.90
20520;DHT22;53432;51.952;14.740;2022-11-15T07:36:08;17.20;99.90
20520;DHT22;53432;51.952;14.740;2022-11-15T07:38:35;17.20;99.90
20520;DHT22;53432;51.952;14.740;2022-11-15T07:41:05;17.20;99.90
20520;DHT22;53432;51.952;14.740;2022-11-15T07:43:33;17.30;99.90
20520;DHT22;53432;51.952;14.740;2022-11-15T07:46:05;17.30;99.90
20520;DHT22;53432;51.952;14.740;2022-11-15T07:48:35;17.30;99.90
20520;DHT22;53432;51.952;14.740;2022-11-15T07:51:03;17.30;99.90
20520;DHT22;53432;51.952;14.740;2022-11-15T07:53:30;17.40;99.90
20520;DHT22;53432;51.952;14.740;2022-11-15T07:55:57;17.40;99.90
20520;DHT22;53432;51.952;14.740;2022-11-15T07:58:26;17.40;99.90
20520;DHT22;53432;51.952;14.740;2022-11-15T08:00:54;17.40;99.90
20520;DHT22;53432;51.952;14.740;2022-11-15T08:03:21;17.50;99.90
20520;DHT22;53432;51.952;14.740;2022-11-15T08:05:51;17.50;99.90
20520;DHT22;53432;51.952;14.740;2022-11-15T08:08:18;17.50;99.90
20520;DHT22;53432;51.952;14.740;2022-11-15T08:10:46;17.50;99.90
20520;DHT22;53432;51.952;14.740;2022-11-15T08:13:13;17.60;99.90
20520;DHT22;53432;51.952;14.740;2022-11-15T08:15:42;17.60;99.90
20520;DHT22;53432;51.952;14.740;2022-11-15T08:18:13;17.60;99.90
20520;DHT22;53432;51.952;14.740;2022-11-15T08:20:41;17.70;99.90
20520;DHT22;53432;51.952;14.740;2022-11-15T08:23:10;17.70;99.90
20520;DHT22;53432;51.952;14.740;2022-11-15T08:25:38;17.70;99.90
20520;DHT22;53432;51.952;14.740;2022-11-15T08:28:09;17.70;99.90
20520;DHT22;53432;51.952;14.740;2022-11-15T08:30:39;17.80;99.90
20520;DHT22;53432;51.952;14.740;2022-11-15T08:33:11;17.80;99.90
20520;DHT22;53432;51.952;14.740;2022-11-15T08:35:39;17.80;99.90
20520;DHT22;53432;51.952;14.740;2022-11-15T08:38:07;17.80;99.90
20520;DHT22;53432;51.952;14.740;2022-11-15T08:40:35;17.80;99.90
20520;DHT22;53432;51.952;14.740;2022-11-15T08:43:02;17.80;99.90
20520;DHT22;53432;51.952;14.740;2022-11-15T08:45:30;17.90;99.90
20520;DHT22;53432;51.952;14.740;2022-11-15T08:47:57;17.90;99.90
20520;DHT22;53432;51.952;14.740;2022-11-15T08:50:29;17.90;99.90
20520;DHT22;53432;51.952;14.740;2022-11-15T08:52:56;17.90;99.90
20520;DHT22;53432;51.952;14.740;2022-11-15T08:55:23;17.90;99.90
20520;DHT22;53432;51.952;14.740;2022-11-15T08:57:51;17.90;99.90
20520;DHT22;53432;51.952;14.740;2022-11-15T09:00:19;17.90;99.90
20520;DHT22;53432;51.952;14.740;2022-11-15T09:02:47;17.90;99.90
20520;DHT22;53432;51.952;14.740;2022-11-15T09:05:14;18.00;99.90
20520;DHT22;53432;51.952;14.740;2022-11-15T09:07:44;17.90;99.90
20520;DHT22;53432;51.952;14.740;2022-11-15T09:10:11;17.90;99.90
20520;DHT22;53432;51.952;14.740;2022-11-15T09:12:38;17.90;99.90
20520;DHT22;53432;51.952;14.740;2022-11-15T09:15:07;18.00;99.90
20520;DHT22;53432;51.952;14.740;2022-11-15T09:17:35;17.90;99.90
20520;DHT22;53432;51.952;14.740;2022-11-15T09:20:03;18.00;99.90
20520;DHT22;53432;51.952;14.740;2022-11-15T09:22:30;18.00;99.90
20520;DHT22;53432;51.952;14.740;2022-11-15T09:24:59;18.00;99.90
20520;DHT22;53432;51.952;14.740;2022-11-15T09:27:27;18.00;99.90
20520;DHT22;53432;51.952;14.740;2022-11-15T09:29:55;18.00;99.90
20520;DHT22;53432;51.952;14.740;2022-11-15T09:32:22;18.00;99.90
20520;DHT22;53432;51.952;14.740;2022-11-15T09:34:50;18.00;99.90
20520;DHT22;53432;51.952;14.740;2022-11-15T09:37:18;18.00;99.90
20520;DHT22;53432;51.952;14.740;2022-11-15T09:39:45;18.00;99.90
20520;DHT22;53432;51.952;14.740;2022-11-15T09:42:32;18.00;99.90
20520;DHT22;53432;51.952;14.740;2022-11-15T09:45:11;18.00;99.90
20520;DHT22;53432;51.952;14.740;2022-11-15T09:47:58;18.00;99.90
20520;DHT22;53432;51.952;14.740;2022-11-15T09:50:34;18.00;99.90
20520;DHT22;53432;51.952;14.740;2022-11-15T09:53:03;18.00;99.90
20520;DHT22;53432;51.952;14.740;2022-11-15T09:55:36;18.00;99.90
20520;DHT22;53432;51.952;14.740;2022-11-15T09:58:15;18.00;99.90
20520;DHT22;53432;51.952;14.740;2022-11-15T10:00:47;18.00;99.90
20520;DHT22;53432;51.952;14.740;2022-11-15T10:03:25;18.00;99.90
20520;DHT22;53432;51.952;14.740;2022-11-15T10:05:56;18.00;99.90
20520;DHT22;53432;51.952;14.740;2022-11-15T10:08:47;18.00;99.90
20520;DHT22;53432;51.952;14.740;2022-11-15T10:11:20;17.90;99.90
20520;DHT22;53432;51.952;14.740;2022-11-15T10:13:50;18.00;99.90
20520;DHT22;53432;51.952;14.740;2022-11-15T10:16:36;17.90;99.90
20520;DHT22;53432;51.952;14.740;2022-11-15T10:19:16;17.90;99.90
20520;DHT22;53432;51.952;14.740;2022-11-15T10:21:53;17.90;99.90
20520;DHT22;53432;51.952;14.740;2022-11-15T10:24:28;17.90;99.90
20520;DHT22;53432;51.952;14.740;2022-11-15T10:27:01;17.90;99.90
20520;DHT22;53432;51.952;14.740;2022-11-15T10:29:30;17.90;99.90
20520;DHT22;53432;51.952;14.740;2022-11-15T10:31:57;17.90;99.90
20520;DHT22;53432;51.952;14.740;2022-11-15T10:34:25;17.90;99.90
20520;DHT22;53432;51.952;14.740;2022-11-15T10:36:57;17.90;99.90
20520;DHT22;53432;51.952;14.740;2022-11-15T10:39:26;17.90;99.90
20520;DHT22;53432;51.952;14.740;2022-11-15T10:41:54;17.90;99.90
20520;DHT22;53432;51.952;14.740;2022-11-15T10:44:24;17.90;99.90
20520;DHT22;53432;51.952;14.740;2022-11-15T10:50:05;17.90;99.90
20520;DHT22;53432;51.952;14.740;2022-11-15T10:52:34;17.90;99.90
20520;DHT22;53432;51.952;14.740;2022-11-15T10:55:18;17.90;99.90
20520;DHT22;53432;51.952;14.740;2022-11-15T10:57:50;17.90;99.90
20520;DHT22;53432;51.952;14.740;2022-11-15T11:00:29;17.90;99.90
20520;DHT22;53432;51.952;14.740;2022-11-15T11:03:00;17.90;99.90
20520;DHT22;53432;51.952;14.740;2022-11-15T11:05:30;17.90;99.90
20520;DHT22;53432;51.952;14.740;2022-11-15T11:08:09;17.90;99.90
20520;DHT22;53432;51.952;14.740;2022-11-15T11:10:52;17.90;99.90
20520;DHT22;53432;51.952;14.740;2022-11-15T11:13:23;17.90;99.90
20520;DHT22;53432;51.952;14.740;2022-11-15T11:15:55;17.80;99.90
20520;DHT22;53432;51.952;14.740;2022-11-15T11:18:30;17.90;99.90
20520;DHT22;53432;51.952;14.740;2022-11-15T11:21:04;17.90;99.90
20520;DHT22;53432;51.952;14.740;2022-11-15T11:23:43;17.90;99.90
20520;DHT22;53432;51.952;14.740;2022-11-15T11:26:25;17.80;99.90
20520;DHT22;53432;51.952;14.740;2022-11-15T11:29:02;17.80;99.90
20520;DHT22;53432;51.952;14.740;2022-11-15T11:31:39;17.80;99.90
20520;DHT22;53432;51.952;14.740;2022-11-15T11:34:15;17.80;99.90
20520;DHT22;53432;51.952;14.740;2022-11-15T11:36:50;17.80;99.90
20520;DHT22;53432;51.952;14.740;2022-11-15T11:39:26;17.80;99.90
20520;DHT22;53432;51.952;14.740;2022-11-15T11:42:01;17.80;99.90
20520;DHT22;53432;51.952;14.740;2022-11-15T11:44:36;17.80;99.90
20520;DHT22;53432;51.952;14.740;2022-11-15T11:47:09;17.80;99.90
20520;DHT22;53432;51.952;14.740;2022-11-15T11:49:43;17.80;99.90
20520;DHT22;53432;51.952;14.740;2022-11-15T11:52:16;17.80;99.90
20520;DHT22;53432;51.952;14.740;2022-11-15T11:54:53;17.80;99.90
20520;DHT22;53432;51.952;14.740;2022-11-15T11:57:28;17.80;99.90
20520;DHT22;53432;51.952;14.740;2022-11-15T12:00:02;17.80;99.90
20520;DHT22;53432;51.952;14.740;2022-11-15T12:02:34;17.80;99.90
20520;DHT22;53432;51.952;14.740;2022-11-15T12:05:09;17.80;99.90
20520;DHT22;53432;51.952;14.740;2022-11-15T12:07:40;17.80;99.90
20520;DHT22;53432;51.952;14.740;2022-11-15T12:10:17;17.90;99.90
20520;DHT22;53432;51.952;14.740;2022-11-15T12:12:52;17.90;99.90
20520;DHT22;53432;51.952;14.740;2022-11-15T12:15:23;17.90;99.90
20520;DHT22;53432;51.952;14.740;2022-11-15T12:17:52;17.90;99.90
20520;DHT22;53432;51.952;14.740;2022-11-15T12:20:25;18.00;99.90
20520;DHT22;53432;51.952;14.740;2022-11-15T12:22:58;18.00;99.90
20520;DHT22;53432;51.952;14.740;2022-11-15T12:25:30;17.90;99.90
20520;DHT22;53432;51.952;14.740;2022-11-15T12:28:03;18.00;99.90
20520;DHT22;53432;51.952;14.740;2022-11-15T12:30:41;17.90;99.90
20520;DHT22;53432;51.952;14.740;2022-11-15T12:33:30;17.90;99.90
20520;DHT22;53432;51.952;14.740;2022-11-15T12:36:01;17.90;99.90
20520;DHT22;53432;51.952;14.740;2022-11-15T12:38:55;17.90;99.90
20520;DHT22;53432;51.952;14.740;2022-11-15T12:41:24;18.00;99.90
20520;DHT22;53432;51.952;14.740;2022-11-15T12:43:52;17.90;99.90
20520;DHT22;53432;51.952;14.740;2022-11-15T12:46:59;17.90;99.90
20520;DHT22;53432;51.952;14.740;2022-11-15T12:49:44;17.90;99.90
20520;DHT22;53432;51.952;14.740;2022-11-15T12:52:14;17.90;99.90
20520;DHT22;53432;51.952;14.740;2022-11-15T12:57:54;17.90;99.90
20520;DHT22;53432;51.952;14.740;2022-11-15T13:00:42;17.90;99.90
20520;DHT22;53432;51.952;14.740;2022-11-15T13:03:24;18.00;99.90
20520;DHT22;53432;51.952;14.740;2022-11-15T13:06:04;18.00;99.90
20520;DHT22;53432;51.952;14.740;2022-11-15T13:08:42;18.00;99.90
20520;DHT22;53432;51.952;14.740;2022-11-15T13:11:50;18.00;99.90
20520;DHT22;53432;51.952;14.740;2022-11-15T13:14:42;18.00;99.90
20520;DHT22;53432;51.952;14.740;2022-11-15T13:17:33;17.90;99.90
20520;DHT22;53432;51.952;14.740;2022-11-15T13:20:19;17.90;99.90
20520;DHT22;53432;51.952;14.740;2022-11-15T13:22:49;17.90;99.90
20520;DHT22;53432;51.952;14.740;2022-11-15T13:28:30;17.90;99.90
20520;DHT22;53432;51.952;14.740;2022-11-15T13:30:59;17.90;99.90
20520;DHT22;53432;51.952;14.740;2022-11-15T13:33:33;17.90;99.90
20520;DHT22;53432;51.952;14.740;2022-11-15T13:36:03;17.90;99.90
20520;DHT22;53432;51.952;14.740;2022-11-15T13:38:33;18.00;99.90
20520;DHT22;53432;51.952;14.740;2022-11-15T13:41:17;18.00;99.90
20520;DHT22;53432;51.952;14.740;2022-11-15T13:43:46;18.00;99.90
20520;DHT22;53432;51.952;14.740;2022-11-15T13:46:17;18.10;99.90
20520;DHT22;53432;51.952;14.740;2022-11-15T13:48:46;18.10;99.90
20520;DHT22;53432;51.952;14.740;2022-11-15T13:51:18;18.00;99.90
20520;DHT22;53432;51.952;14.740;2022-11-15T13:53:50;18.00;99.90
20520;DHT22;53432;51.952;14.740;2022-11-15T13:56:21;18.00;99.90
20520;DHT22;53432;51.952;14.740;2022-11-15T13:58:48;18.00;99.90
20520;DHT22;53432;51.952;14.740;2022-11-15T14:01:18;18.00;99.90
20520;DHT22;53432;51.952;14.740;2022-11-15T14:03:51;17.90;99.90
20520;DHT22;53432;51.952;14.740;2022-11-15T14:06:20;17.90;99.90
20520;DHT22;53432;51.952;14.740;2022-11-15T14:09:01;17.90;99.90
20520;DHT22;53432;51.952;14.740;2022-11-15T14:11:33;17.80;99.90
20520;DHT22;53432;51.952;14.740;2022-11-15T14:14:11;17.80;99.90
20520;DHT22;53432;51.952;14.740;2022-11-15T14:16:40;17.80;99.90
20520;DHT22;53432;51.952;14.740;2022-11-15T14:19:11;17.70;99.90
20520;DHT22;53432;51.952;14.740;2022-11-15T14:22:12;17.80;99.90
20520;DHT22;53432;51.952;14.740;2022-11-15T14:24:42;17.80;99.90
20520;DHT22;53432;51.952;14.740;2022-11-15T14:27:19;17.80;99.90
20520;DHT22;53432;51.952;14.740;2022-11-15T14:29:47;17.80;99.90
20520;DHT22;53432;51.952;14.740;2022-11-15T14:32:16;17.70;99.90
20520;DHT22;53432;51.952;14.740;2022-11-15T14:34:45;17.70;99.90
20520;DHT22;53432;51.952;14.740;2022-11-15T14:37:20;17.70;99.90
20520;DHT22;53432;51.952;14.740;2022-11-15T14:39:48;17.70;99.90
20520;DHT22;53432;51.952;14.740;2022-11-15T14:42:16;17.70;99.90
20520;DHT22;53432;51.952;14.740;2022-11-15T14:44:45;17.70;99.90
20520;DHT22;53432;51.952;14.740;2022-11-15T14:47:13;17.60;99.90
20520;DHT22;53432;51.952;14.740;2022-11-15T14:49:41;17.60;99.90
20520;DHT22;53432;51.952;14.740;2022-11-15T14:52:23;17.60;99.90
20520;DHT22;53432;51.952;14.740;2022-11-15T14:54:51;17.60;99.90
20520;DHT22;53432;51.952;14.740;2022-11-15T14:57:18;17.50;99.90
20520;DHT22;53432;51.952;14.740;2022-11-15T14:59:47;17.50;99.90
20520;DHT22;53432;51.952;14.740;2022-11-15T15:02:17;17.50;99.90
20520;DHT22;53432;51.952;14.740;2022-11-15T15:04:46;17.50;99.90
20520;DHT22;53432;51.952;14.740;2022-11-15T15:07:14;17.50;99.90
20520;DHT22;53432;51.952;14.740;2022-11-15T15:09:42;17.50;99.90
20520;DHT22;53432;51.952;14.740;2022-11-15T15:12:15;17.40;99.90
20520;DHT22;53432;51.952;14.740;2022-11-15T15:14:44;17.30;99.90
20520;DHT22;53432;51.952;14.740;2022-11-15T15:17:13;17.40;99.90
20520;DHT22;53432;51.952;14.740;2022-11-15T15:19:41;17.30;99.90
20520;DHT22;53432;51.952;14.740;2022-11-15T15:22:12;17.30;99.90
20520;DHT22;53432;51.952;14.740;2022-11-15T15:24:41;17.30;99.90
20520;DHT22;53432;51.952;14.740;2022-11-15T15:27:09;17.30;99.90
20520;DHT22;53432;51.952;14.740;2022-11-15T15:29:36;17.20;99.90
20520;DHT22;53432;51.952;14.740;2022-11-15T15:32:04;17.20;99.90
20520;DHT22;53432;51.952;14.740;2022-11-15T15:34:33;17.20;99.90
20520;DHT22;53432;51.952;14.740;2022-11-15T15:37:07;17.20;99.90
20520;DHT22;53432;51.952;14.740;2022-11-15T15:39:35;17.10;99.90
20520;DHT22;53432;51.952;14.740;2022-11-15T15:42:03;17.10;99.90
20520;DHT22;53432;51.952;14.740;2022-11-15T15:44:31;17.10;99.90
20520;DHT22;53432;51.952;14.740;2022-11-15T15:46:58;17.10;99.90
20520;DHT22;53432;51.952;14.740;2022-11-15T15:49:25;17.10;99.90
20520;DHT22;53432;51.952;14.740;2022-11-15T15:51:54;17.00;99.90
20520;DHT22;53432;51.952;14.740;2022-11-15T15:54:22;17.00;99.90
20520;DHT22;53432;51.952;14.740;2022-11-15T15:56:49;17.00;99.90
20520;DHT22;53432;51.952;14.740;2022-11-15T15:59:17;17.00;99.90
20520;DHT22;53432;51.952;14.740;2022-11-15T16:01:44;16.90;99.90
20520;DHT22;53432;51.952;14.740;2022-11-15T16:04:11;16.90;99.90
20520;DHT22;53432;51.952;14.740;2022-11-15T16:06:40;16.90;99.90
20520;DHT22;53432;51.952;14.740;2022-11-15T16:09:14;16.90;99.90
20520;DHT22;53432;51.952;14.740;2022-11-15T16:11:42;16.90;99.90
20520;DHT22;53432;51.952;14.740;2022-11-15T16:14:09;16.90;99.90
20520;DHT22;53432;51.952;14.740;2022-11-15T16:16:37;16.90;99.90
20520;DHT22;53432;51.952;14.740;2022-11-15T16:19:05;16.90;99.90
20520;DHT22;53432;51.952;14.740;2022-11-15T16:21:32;16.80;99.90
20520;DHT22;53432;51.952;14.740;2022-11-15T16:24:00;16.80;99.90
20520;DHT22;53432;51.952;14.740;2022-11-15T16:26:29;16.80;99.90
20520;DHT22;53432;51.952;14.740;2022-11-15T16:28:57;16.80;99.90
20520;DHT22;53432;51.952;14.740;2022-11-15T16:31:25;16.80;99.90
20520;DHT22;53432;51.952;14.740;2022-11-15T16:33:52;16.70;99.90
20520;DHT22;53432;51.952;14.740;2022-11-15T16:36:22;16.70;99.90
20520;DHT22;53432;51.952;14.740;2022-11-15T16:38:50;16.70;99.90
20520;DHT22;53432;51.952;14.740;2022-11-15T16:41:18;16.70;99.90
20520;DHT22;53432;51.952;14.740;2022-11-15T16:43:47;16.70;99.90
20520;DHT22;53432;51.952;14.740;2022-11-15T16:46:17;16.70;99.90
20520;DHT22;53432;51.952;14.740;2022-11-15T16:48:45;16.70;99.90
20520;DHT22;53432;51.952;14.740;2022-11-15T16:51:13;16.70;99.90
20520;DHT22;53432;51.952;14.740;2022-11-15T16:53:41;16.70;99.90
20520;DHT22;53432;51.952;14.740;2022-11-15T16:56:18;16.70;99.90
20520;DHT22;53432;51.952;14.740;2022-11-15T16:58:47;16.70;99.90
20520;DHT22;53432;51.952;14.740;2022-11-15T17:01:17;16.80;99.90
20520;DHT22;53432;51.952;14.740;2022-11-15T17:03:46;16.80;99.90
20520;DHT22;53432;51.952;14.740;2022-11-15T17:06:14;16.80;99.90
20520;DHT22;53432;51.952;14.740;2022-11-15T17:08:43;16.80;99.90
20520;DHT22;53432;51.952;14.740;2022-11-15T17:11:14;16.90;99.90
20520;DHT22;53432;51.952;14.740;2022-11-15T17:13:42;16.90;99.90
20520;DHT22;53432;51.952;14.740;2022-11-15T17:16:12;16.90;99.90
20520;DHT22;53432;51.952;14.740;2022-11-15T17:18:40;16.90;99.90
20520;DHT22;53432;51.952;14.740;2022-11-15T17:21:13;16.90;99.90
20520;DHT22;53432;51.952;14.740;2022-11-15T17:23:41;16.90;99.90
20520;DHT22;53432;51.952;14.740;2022-11-15T17:26:09;16.90;99.90
20520;DHT22;53432;51.952;14.740;2022-11-15T17:28:38;16.90;99.90
20520;DHT22;53432;51.952;14.740;2022-11-15T17:31:07;17.00;99.90
20520;DHT22;53432;51.952;14.740;2022-11-15T17:33:37;17.00;99.90
20520;DHT22;53432;51.952;14.740;2022-11-15T17:36:08;17.00;99.90
20520;DHT22;53432;51.952;14.740;2022-11-15T17:38:36;17.00;99.90
20520;DHT22;53432;51.952;14.740;2022-11-15T17:41:05;17.00;99.90
20520;DHT22;53432;51.952;14.740;2022-11-15T17:43:34;17.00;99.90
20520;DHT22;53432;51.952;14.740;2022-11-15T17:46:04;17.00;99.90
20520;DHT22;53432;51.952;14.740;2022-11-15T17:48:32;17.00;99.90
20520;DHT22;53432;51.952;14.740;2022-11-15T17:51:02;17.00;99.90
20520;DHT22;53432;51.952;14.740;2022-11-15T17:53:31;17.10;99.90